sensor_id;sensor_type;location;lat;lon;timestamp;temperature;humidity
22069;DHT22;13887;57.196;-2.100;2022-10-18T00:00:17;11.11;81.52
22069;DHT22;13887;57.196;-2.100;2022-10-18T00:02:44;11.10;81.57
22069;DHT22;13887;57.196;-2.100;2022-10-18T00:05:11;11.09;81.43
22069;DHT22;13887;57.196;-2.100;2022-10-18T00:07:38;11.07;81.41
22069;DHT22;13887;57.196;-2.100;2022-10-18T00:10:05;10.99;81.14
22069;DHT22;13887;57.196;-2.100;2022-10-18T00:12:34;10.96;81.34
22069;DHT22;13887;57.196;-2.100;2022-10-18T00:15:01;10.92;81.26
22069;DHT22;13887;57.196;-2.100;2022-10-18T00:17:29;10.96;81.49
22069;DHT22;13887;57.196;-2.100;2022-10-18T00:19:56;10.97;81.25
22069;DHT22;13887;57.196;-2.100;2022-10-18T00:22:23;10.95;81.24
22069;DHT22;13887;57.196;-2.100;2022-10-18T00:24:51;10.94;81.17
22069;DHT22;13887;57.196;-2.100;2022-10-18T00:27:18;10.87;81.20
22069;DHT22;13887;57.196;-2.100;2022-10-18T00:29:45;10.93;81.14
22069;DHT22;13887;57.196;-2.100;2022-10-18T00:32:12;10.90;81.27
22069;DHT22;13887;57.196;-2.100;2022-10-18T00:34:39;10.94;80.99
22069;DHT22;13887;57.196;-2.100;2022-10-18T00:37:06;10.93;81.08
22069;DHT22;13887;57.196;-2.100;2022-10-18T00:39:32;10.93;81.04
22069;DHT22;13887;57.196;-2.100;2022-10-18T00:42:00;10.93;80.91
22069;DHT22;13887;57.196;-2.100;2022-10-18T00:46:57;10.92;81.23
22069;DHT22;13887;57.196;-2.100;2022-10-18T00:49:55;10.93;80.84
22069;DHT22;13887;57.196;-2.100;2022-10-18T00:52:26;10.89;80.92
22069;DHT22;13887;57.196;-2.100;2022-10-18T00:54:56;10.94;80.90
22069;DHT22;13887;57.196;-2.100;2022-10-18T00:57:23;10.95;81.01
22069;DHT22;13887;57.196;-2.100;2022-10-18T00:59:50;10.89;81.08
22069;DHT22;13887;57.196;-2.100;2022-10-18T01:02:18;10.90;81.02
22069;DHT22;13887;57.196;-2.100;2022-10-18T01:04:46;10.89;80.83
22069;DHT22;13887;57.196;-2.100;2022-10-18T01:07:33;10.87;80.08
22069;DHT22;13887;57.196;-2.100;2022-10-18T01:18:25;10.87;80.58
22069;DHT22;13887;57.196;-2.100;2022-10-18T01:24:16;10.85;80.37
22069;DHT22;13887;57.196;-2.100;2022-10-18T01:32:34;10.86;80.36
22069;DHT22;13887;57.196;-2.100;2022-10-18T01:35:07;10.84;80.39
22069;DHT22;13887;57.196;-2.100;2022-10-18T01:37:38;10.83;80.56
22069;DHT22;13887;57.196;-2.100;2022-10-18T01:40:06;10.84;80.57
22069;DHT22;13887;57.196;-2.100;2022-10-18T01:42:34;10.86;80.57
22069;DHT22;13887;57.196;-2.100;2022-10-18T01:45:02;10.86;80.49
22069;DHT22;13887;57.196;-2.100;2022-10-18T01:47:30;10.86;80.49
22069;DHT22;13887;57.196;-2.100;2022-10-18T01:50:02;10.88;80.52
22069;DHT22;13887;57.196;-2.100;2022-10-18T01:52:29;10.86;80.34
22069;DHT22;13887;57.196;-2.100;2022-10-18T01:54:59;10.87;80.18
22069;DHT22;13887;57.196;-2.100;2022-10-18T01:57:39;10.87;80.35
22069;DHT22;13887;57.196;-2.100;2022-10-18T02:00:27;10.89;80.27
22069;DHT22;13887;57.196;-2.100;2022-10-18T02:03:08;10.88;80.34
22069;DHT22;13887;57.196;-2.100;2022-10-18T02:05:51;10.92;80.31
22069;DHT22;13887;57.196;-2.100;2022-10-18T02:11:07;10.92;80.31
22069;DHT22;13887;57.196;-2.100;2022-10-18T02:13:39;10.94;80.29
22069;DHT22;13887;57.196;-2.100;2022-10-18T02:16:13;10.97;80.23
22069;DHT22;13887;57.196;-2.100;2022-10-18T02:18:49;10.97;80.24
22069;DHT22;13887;57.196;-2.100;2022-10-18T02:21:18;10.93;80.45
22069;DHT22;13887;57.196;-2.100;2022-10-18T02:23:47;10.94;80.41
22069;DHT22;13887;57.196;-2.100;2022-10-18T02:26:14;10.95;80.43
22069;DHT22;13887;57.196;-2.100;2022-10-18T02:28:42;10.94;80.41
22069;DHT22;13887;57.196;-2.100;2022-10-18T02:31:20;10.97;80.34
22069;DHT22;13887;57.196;-2.100;2022-10-18T02:33:59;10.94;80.43
22069;DHT22;13887;57.196;-2.100;2022-10-18T02:36:30;10.95;80.43
22069;DHT22;13887;57.196;-2.100;2022-10-18T02:39:05;10.96;80.35
22069;DHT22;13887;57.196;-2.100;2022-10-18T02:41:33;10.95;80.48
22069;DHT22;13887;57.196;-2.100;2022-10-18T02:44:00;10.94;80.24
22069;DHT22;13887;57.196;-2.100;2022-10-18T02:46:27;10.94;80.56
22069;DHT22;13887;57.196;-2.100;2022-10-18T02:48:54;10.92;80.55
22069;DHT22;13887;57.196;-2.100;2022-10-18T02:51:20;10.90;80.40
22069;DHT22;13887;57.196;-2.100;2022-10-18T02:53:47;10.92;80.33
22069;DHT22;13887;57.196;-2.100;2022-10-18T02:56:14;10.90;80.32
22069;DHT22;13887;57.196;-2.100;2022-10-18T02:58:42;10.90;80.03
22069;DHT22;13887;57.196;-2.100;2022-10-18T03:01:09;10.88;80.12
22069;DHT22;13887;57.196;-2.100;2022-10-18T03:03:36;10.90;80.11
22069;DHT22;13887;57.196;-2.100;2022-10-18T03:06:03;10.88;80.22
22069;DHT22;13887;57.196;-2.100;2022-10-18T03:08:30;10.82;80.07
22069;DHT22;13887;57.196;-2.100;2022-10-18T03:10:57;10.83;80.14
22069;DHT22;13887;57.196;-2.100;2022-10-18T03:13:23;10.87;80.07
22069;DHT22;13887;57.196;-2.100;2022-10-18T03:15:50;10.88;80.14
22069;DHT22;13887;57.196;-2.100;2022-10-18T03:18:17;10.89;80.06
22069;DHT22;13887;57.196;-2.100;2022-10-18T03:20:44;10.88;80.11
22069;DHT22;13887;57.196;-2.100;2022-10-18T03:23:11;10.86;80.24
22069;DHT22;13887;57.196;-2.100;2022-10-18T03:25:38;10.88;80.40
22069;DHT22;13887;57.196;-2.100;2022-10-18T03:28:09;10.89;80.37
22069;DHT22;13887;57.196;-2.100;2022-10-18T03:30:36;10.87;80.52
22069;DHT22;13887;57.196;-2.100;2022-10-18T03:33:05;10.89;80.56
22069;DHT22;13887;57.196;-2.100;2022-10-18T03:35:32;10.88;80.71
22069;DHT22;13887;57.196;-2.100;2022-10-18T03:37:59;10.86;80.85
22069;DHT22;13887;57.196;-2.100;2022-10-18T03:40:26;10.86;80.89
22069;DHT22;13887;57.196;-2.100;2022-10-18T03:42:52;10.84;81.07
22069;DHT22;13887;57.196;-2.100;2022-10-18T03:45:19;10.83;81.15
22069;DHT22;13887;57.196;-2.100;2022-10-18T03:47:46;10.86;81.07
22069;DHT22;13887;57.196;-2.100;2022-10-18T03:50:13;10.86;81.08
22069;DHT22;13887;57.196;-2.100;2022-10-18T03:52:40;10.84;81.20
22069;DHT22;13887;57.196;-2.100;2022-10-18T03:55:07;10.85;81.19
22069;DHT22;13887;57.196;-2.100;2022-10-18T03:57:34;10.85;81.19
22069;DHT22;13887;57.196;-2.100;2022-10-18T04:00:01;10.85;81.28
22069;DHT22;13887;57.196;-2.100;2022-10-18T04:02:37;10.85;81.24
22069;DHT22;13887;57.196;-2.100;2022-10-18T04:05:04;10.84;81.36
22069;DHT22;13887;57.196;-2.100;2022-10-18T04:07:32;10.84;81.40
22069;DHT22;13887;57.196;-2.100;2022-10-18T04:09:58;10.87;81.30
22069;DHT22;13887;57.196;-2.100;2022-10-18T04:12:25;10.86;81.33
22069;DHT22;13887;57.196;-2.100;2022-10-18T04:14:52;10.87;81.33
22069;DHT22;13887;57.196;-2.100;2022-10-18T04:17:21;10.85;81.43
22069;DHT22;13887;57.196;-2.100;2022-10-18T04:19:48;10.87;81.40
22069;DHT22;13887;57.196;-2.100;2022-10-18T04:22:15;10.83;81.53
22069;DHT22;13887;57.196;-2.100;2022-10-18T04:24:41;10.83;81.61
22069;DHT22;13887;57.196;-2.100;2022-10-18T04:27:08;10.83;81.62
22069;DHT22;13887;57.196;-2.100;2022-10-18T04:29:35;10.81;81.73
22069;DHT22;13887;57.196;-2.100;2022-10-18T04:32:02;10.81;81.80
22069;DHT22;13887;57.196;-2.100;2022-10-18T04:34:29;10.83;81.73
22069;DHT22;13887;57.196;-2.100;2022-10-18T04:36:56;10.83;81.72
22069;DHT22;13887;57.196;-2.100;2022-10-18T04:39:23;10.79;81.75
22069;DHT22;13887;57.196;-2.100;2022-10-18T04:41:50;10.74;82.04
22069;DHT22;13887;57.196;-2.100;2022-10-18T04:44:16;10.72;82.16
22069;DHT22;13887;57.196;-2.100;2022-10-18T04:46:43;10.72;82.17
22069;DHT22;13887;57.196;-2.100;2022-10-18T04:49:10;10.64;82.45
22069;DHT22;13887;57.196;-2.100;2022-10-18T04:51:37;10.68;82.42
22069;DHT22;13887;57.196;-2.100;2022-10-18T04:54:04;10.68;82.19
22069;DHT22;13887;57.196;-2.100;2022-10-18T04:56:31;10.69;82.26
22069;DHT22;13887;57.196;-2.100;2022-10-18T04:58:58;10.66;82.31
22069;DHT22;13887;57.196;-2.100;2022-10-18T05:01:25;10.64;82.30
22069;DHT22;13887;57.196;-2.100;2022-10-18T05:03:53;10.66;82.31
22069;DHT22;13887;57.196;-2.100;2022-10-18T05:06:21;10.64;82.55
22069;DHT22;13887;57.196;-2.100;2022-10-18T05:08:48;10.66;82.39
22069;DHT22;13887;57.196;-2.100;2022-10-18T05:11:15;10.63;82.33
22069;DHT22;13887;57.196;-2.100;2022-10-18T05:13:42;10.63;82.46
22069;DHT22;13887;57.196;-2.100;2022-10-18T05:16:14;10.62;82.43
22069;DHT22;13887;57.196;-2.100;2022-10-18T05:18:41;10.60;82.50
22069;DHT22;13887;57.196;-2.100;2022-10-18T05:21:09;10.57;82.63
22069;DHT22;13887;57.196;-2.100;2022-10-18T05:23:36;10.59;82.58
22069;DHT22;13887;57.196;-2.100;2022-10-18T05:26:06;10.54;83.03
22069;DHT22;13887;57.196;-2.100;2022-10-18T05:28:34;10.50;83.26
22069;DHT22;13887;57.196;-2.100;2022-10-18T05:31:08;10.54;83.07
22069;DHT22;13887;57.196;-2.100;2022-10-18T05:33:35;10.58;82.94
22069;DHT22;13887;57.196;-2.100;2022-10-18T05:36:02;10.57;83.14
22069;DHT22;13887;57.196;-2.100;2022-10-18T05:38:30;10.59;83.10
22069;DHT22;13887;57.196;-2.100;2022-10-18T05:40:58;10.55;83.14
22069;DHT22;13887;57.196;-2.100;2022-10-18T05:43:27;10.56;83.22
22069;DHT22;13887;57.196;-2.100;2022-10-18T05:45:55;10.54;83.29
22069;DHT22;13887;57.196;-2.100;2022-10-18T05:48:22;10.54;83.27
22069;DHT22;13887;57.196;-2.100;2022-10-18T05:50:49;10.55;83.27
22069;DHT22;13887;57.196;-2.100;2022-10-18T05:53:16;10.52;83.29
22069;DHT22;13887;57.196;-2.100;2022-10-18T05:56:03;10.50;83.36
22069;DHT22;13887;57.196;-2.100;2022-10-18T05:58:30;10.52;83.22
22069;DHT22;13887;57.196;-2.100;2022-10-18T06:01:01;10.49;83.27
22069;DHT22;13887;57.196;-2.100;2022-10-18T06:03:28;10.51;83.23
22069;DHT22;13887;57.196;-2.100;2022-10-18T06:06:03;10.51;83.20
22069;DHT22;13887;57.196;-2.100;2022-10-18T06:08:31;10.50;83.19
22069;DHT22;13887;57.196;-2.100;2022-10-18T06:10:58;10.52;83.07
22069;DHT22;13887;57.196;-2.100;2022-10-18T06:13:25;10.51;82.97
22069;DHT22;13887;57.196;-2.100;2022-10-18T06:15:55;10.53;82.91
22069;DHT22;13887;57.196;-2.100;2022-10-18T06:18:23;10.51;82.91
22069;DHT22;13887;57.196;-2.100;2022-10-18T06:20:59;10.52;82.86
22069;DHT22;13887;57.196;-2.100;2022-10-18T06:23:26;10.52;82.87
22069;DHT22;13887;57.196;-2.100;2022-10-18T06:26:00;10.50;82.93
22069;DHT22;13887;57.196;-2.100;2022-10-18T06:28:28;10.41;83.29
22069;DHT22;13887;57.196;-2.100;2022-10-18T06:30:56;10.44;83.20
22069;DHT22;13887;57.196;-2.100;2022-10-18T06:33:23;10.50;83.00
22069;DHT22;13887;57.196;-2.100;2022-10-18T06:35:58;10.50;82.94
22069;DHT22;13887;57.196;-2.100;2022-10-18T06:38:26;10.49;82.92
22069;DHT22;13887;57.196;-2.100;2022-10-18T06:40:54;10.49;82.95
22069;DHT22;13887;57.196;-2.100;2022-10-18T06:43:21;10.49;82.95
22069;DHT22;13887;57.196;-2.100;2022-10-18T06:45:49;10.49;82.91
22069;DHT22;13887;57.196;-2.100;2022-10-18T06:48:17;10.51;82.87
22069;DHT22;13887;57.196;-2.100;2022-10-18T06:50:53;10.48;82.92
22069;DHT22;13887;57.196;-2.100;2022-10-18T06:53:20;10.48;82.88
22069;DHT22;13887;57.196;-2.100;2022-10-18T06:55:48;10.44;83.03
22069;DHT22;13887;57.196;-2.100;2022-10-18T06:58:15;10.44;83.00
22069;DHT22;13887;57.196;-2.100;2022-10-18T07:00:41;10.44;82.97
22069;DHT22;13887;57.196;-2.100;2022-10-18T07:03:08;10.43;82.99
22069;DHT22;13887;57.196;-2.100;2022-10-18T07:05:35;9.97;85.70
22069;DHT22;13887;57.196;-2.100;2022-10-18T07:08:02;10.19;84.63
22069;DHT22;13887;57.196;-2.100;2022-10-18T07:10:29;10.28;83.90
22069;DHT22;13887;57.196;-2.100;2022-10-18T07:12:56;10.36;83.42
22069;DHT22;13887;57.196;-2.100;2022-10-18T07:15:43;10.37;83.21
22069;DHT22;13887;57.196;-2.100;2022-10-18T07:18:10;10.38;83.07
22069;DHT22;13887;57.196;-2.100;2022-10-18T07:20:37;10.37;83.07
22069;DHT22;13887;57.196;-2.100;2022-10-18T07:23:04;10.37;83.07
22069;DHT22;13887;57.196;-2.100;2022-10-18T07:25:34;10.34;83.09
22069;DHT22;13887;57.196;-2.100;2022-10-18T07:28:01;10.34;83.04
22069;DHT22;13887;57.196;-2.100;2022-10-18T07:30:28;10.35;83.04
22069;DHT22;13887;57.196;-2.100;2022-10-18T07:32:55;10.37;82.91
22069;DHT22;13887;57.196;-2.100;2022-10-18T07:35:22;10.37;82.92
22069;DHT22;13887;57.196;-2.100;2022-10-18T07:37:49;10.38;82.87
22069;DHT22;13887;57.196;-2.100;2022-10-18T07:40:16;10.37;82.78
22069;DHT22;13887;57.196;-2.100;2022-10-18T07:42:42;10.37;82.87
22069;DHT22;13887;57.196;-2.100;2022-10-18T07:45:10;10.38;82.78
22069;DHT22;13887;57.196;-2.100;2022-10-18T07:47:38;10.36;82.84
22069;DHT22;13887;57.196;-2.100;2022-10-18T07:50:06;10.35;82.91
22069;DHT22;13887;57.196;-2.100;2022-10-18T07:52:33;10.33;82.85
22069;DHT22;13887;57.196;-2.100;2022-10-18T07:55:00;10.34;82.87
22069;DHT22;13887;57.196;-2.100;2022-10-18T07:57:27;10.36;82.78
22069;DHT22;13887;57.196;-2.100;2022-10-18T07:59:54;10.35;82.80
22069;DHT22;13887;57.196;-2.100;2022-10-18T08:02:23;10.33;82.86
22069;DHT22;13887;57.196;-2.100;2022-10-18T08:04:50;10.34;82.85
22069;DHT22;13887;57.196;-2.100;2022-10-18T08:07:17;10.33;82.87
22069;DHT22;13887;57.196;-2.100;2022-10-18T08:09:44;10.33;82.91
22069;DHT22;13887;57.196;-2.100;2022-10-18T08:12:10;10.33;82.95
22069;DHT22;13887;57.196;-2.100;2022-10-18T08:14:37;10.36;82.87
22069;DHT22;13887;57.196;-2.100;2022-10-18T08:17:04;10.36;82.82
22069;DHT22;13887;57.196;-2.100;2022-10-18T08:19:31;10.36;82.87
22069;DHT22;13887;57.196;-2.100;2022-10-18T08:21:58;10.36;82.84
22069;DHT22;13887;57.196;-2.100;2022-10-18T08:24:25;10.37;82.81
22069;DHT22;13887;57.196;-2.100;2022-10-18T08:26:52;10.40;82.72
22069;DHT22;13887;57.196;-2.100;2022-10-18T08:29:19;10.39;82.82
22069;DHT22;13887;57.196;-2.100;2022-10-18T08:31:52;10.39;82.83
22069;DHT22;13887;57.196;-2.100;2022-10-18T08:34:19;10.38;83.00
22069;DHT22;13887;57.196;-2.100;2022-10-18T08:36:46;10.39;82.90
22069;DHT22;13887;57.196;-2.100;2022-10-18T08:39:12;10.39;83.05
22069;DHT22;13887;57.196;-2.100;2022-10-18T08:44:22;10.41;83.17
22069;DHT22;13887;57.196;-2.100;2022-10-18T08:46:54;10.42;83.15
22069;DHT22;13887;57.196;-2.100;2022-10-18T08:49:40;10.43;83.32
22069;DHT22;13887;57.196;-2.100;2022-10-18T08:55:15;10.45;83.57
22069;DHT22;13887;57.196;-2.100;2022-10-18T08:57:45;10.45;83.58
22069;DHT22;13887;57.196;-2.100;2022-10-18T09:00:29;10.45;83.54
22069;DHT22;13887;57.196;-2.100;2022-10-18T09:05:51;10.44;83.73
22069;DHT22;13887;57.196;-2.100;2022-10-18T09:22:17;10.50;83.95
22069;DHT22;13887;57.196;-2.100;2022-10-18T09:27:44;10.50;84.39
22069;DHT22;13887;57.196;-2.100;2022-10-18T09:38:09;10.52;84.44
22069;DHT22;13887;57.196;-2.100;2022-10-18T09:40:49;10.54;84.37
22069;DHT22;13887;57.196;-2.100;2022-10-18T09:43:23;10.57;84.43
22069;DHT22;13887;57.196;-2.100;2022-10-18T09:45:52;10.57;84.55
22069;DHT22;13887;57.196;-2.100;2022-10-18T09:48:28;10.57;84.46
22069;DHT22;13887;57.196;-2.100;2022-10-18T09:51:03;10.62;84.82
22069;DHT22;13887;57.196;-2.100;2022-10-18T09:56:33;10.63;84.90
22069;DHT22;13887;57.196;-2.100;2022-10-18T09:59:31;10.63;84.63
22069;DHT22;13887;57.196;-2.100;2022-10-18T10:02:00;10.66;84.74
22069;DHT22;13887;57.196;-2.100;2022-10-18T10:04:27;10.67;85.03
22069;DHT22;13887;57.196;-2.100;2022-10-18T10:06:55;10.65;85.06
22069;DHT22;13887;57.196;-2.100;2022-10-18T10:09:27;10.68;84.77
22069;DHT22;13887;57.196;-2.100;2022-10-18T10:11:55;10.68;84.83
22069;DHT22;13887;57.196;-2.100;2022-10-18T10:14:27;10.72;84.77
22069;DHT22;13887;57.196;-2.100;2022-10-18T10:17:01;10.71;85.10
22069;DHT22;13887;57.196;-2.100;2022-10-18T10:22:08;10.70;85.30
22069;DHT22;13887;57.196;-2.100;2022-10-18T10:24:48;10.69;85.20
22069;DHT22;13887;57.196;-2.100;2022-10-18T10:32:17;10.71;85.06
22069;DHT22;13887;57.196;-2.100;2022-10-18T10:34:45;10.71;85.19
22069;DHT22;13887;57.196;-2.100;2022-10-18T10:37:33;10.71;85.17
22069;DHT22;13887;57.196;-2.100;2022-10-18T10:42:57;10.71;85.24
22069;DHT22;13887;57.196;-2.100;2022-10-18T10:45:53;10.73;85.27
22069;DHT22;13887;57.196;-2.100;2022-10-18T10:48:21;10.73;85.19
22069;DHT22;13887;57.196;-2.100;2022-10-18T10:51:09;10.72;85.25
22069;DHT22;13887;57.196;-2.100;2022-10-18T10:56:21;10.75;84.93
22069;DHT22;13887;57.196;-2.100;2022-10-18T10:58:49;10.78;84.82
22069;DHT22;13887;57.196;-2.100;2022-10-18T11:03:49;10.78;84.82
22069;DHT22;13887;57.196;-2.100;2022-10-18T11:06:46;10.79;84.84
22069;DHT22;13887;57.196;-2.100;2022-10-18T11:09:26;10.78;84.93
22069;DHT22;13887;57.196;-2.100;2022-10-18T11:12:07;10.82;84.85
22069;DHT22;13887;57.196;-2.100;2022-10-18T11:14:38;10.82;84.76
22069;DHT22;13887;57.196;-2.100;2022-10-18T11:22:17;10.82;84.69
22069;DHT22;13887;57.196;-2.100;2022-10-18T11:24:44;10.82;84.79
22069;DHT22;13887;57.196;-2.100;2022-10-18T11:43:56;10.87;84.31
22069;DHT22;13887;57.196;-2.100;2022-10-18T11:52:10;10.90;84.28
22069;DHT22;13887;57.196;-2.100;2022-10-18T11:54:49;10.93;84.26
22069;DHT22;13887;57.196;-2.100;2022-10-18T12:01:02;10.96;84.07
22069;DHT22;13887;57.196;-2.100;2022-10-18T12:06:03;11.03;83.62
22069;DHT22;13887;57.196;-2.100;2022-10-18T12:08:35;11.03;83.67
22069;DHT22;13887;57.196;-2.100;2022-10-18T12:11:08;11.05;83.14
22069;DHT22;13887;57.196;-2.100;2022-10-18T12:13:54;11.04;83.13
22069;DHT22;13887;57.196;-2.100;2022-10-18T12:16:26;11.03;82.89
22069;DHT22;13887;57.196;-2.100;2022-10-18T12:19:19;11.03;82.68
22069;DHT22;13887;57.196;-2.100;2022-10-18T12:21:54;11.05;82.52
22069;DHT22;13887;57.196;-2.100;2022-10-18T12:24:26;11.02;82.47
22069;DHT22;13887;57.196;-2.100;2022-10-18T12:26:58;11.05;82.29
22069;DHT22;13887;57.196;-2.100;2022-10-18T12:29:36;11.05;82.09
22069;DHT22;13887;57.196;-2.100;2022-10-18T12:32:09;11.05;82.22
22069;DHT22;13887;57.196;-2.100;2022-10-18T12:34:44;11.04;82.19
22069;DHT22;13887;57.196;-2.100;2022-10-18T12:40:04;11.11;82.05
22069;DHT22;13887;57.196;-2.100;2022-10-18T12:42:43;11.13;82.01
22069;DHT22;13887;57.196;-2.100;2022-10-18T12:45:24;11.14;81.91
22069;DHT22;13887;57.196;-2.100;2022-10-18T12:47:53;11.14;81.77
22069;DHT22;13887;57.196;-2.100;2022-10-18T12:50:31;11.17;81.73
22069;DHT22;13887;57.196;-2.100;2022-10-18T12:53:13;11.16;81.44
22069;DHT22;13887;57.196;-2.100;2022-10-18T12:55:49;11.17;81.25
22069;DHT22;13887;57.196;-2.100;2022-10-18T13:19:19;11.23;80.52
22069;DHT22;13887;57.196;-2.100;2022-10-18T13:24:43;11.17;80.59
22069;DHT22;13887;57.196;-2.100;2022-10-18T13:41:29;11.16;80.56
22069;DHT22;13887;57.196;-2.100;2022-10-18T13:44:31;11.18;80.70
22069;DHT22;13887;57.196;-2.100;2022-10-18T13:57:57;11.29;80.05
22069;DHT22;13887;57.196;-2.100;2022-10-18T14:06:25;11.31;80.53
22069;DHT22;13887;57.196;-2.100;2022-10-18T14:09:18;11.30;80.35
22069;DHT22;13887;57.196;-2.100;2022-10-18T14:17:47;11.19;80.82
22069;DHT22;13887;57.196;-2.100;2022-10-18T14:20:32;11.20;80.96
22069;DHT22;13887;57.196;-2.100;2022-10-18T14:23:22;11.19;81.08
22069;DHT22;13887;57.196;-2.100;2022-10-18T14:26:01;11.18;81.10
22069;DHT22;13887;57.196;-2.100;2022-10-18T14:28:31;11.18;81.15
22069;DHT22;13887;57.196;-2.100;2022-10-18T14:31:18;11.20;81.10
22069;DHT22;13887;57.196;-2.100;2022-10-18T14:33:56;11.20;80.91
22069;DHT22;13887;57.196;-2.100;2022-10-18T14:36:38;11.19;80.73
22069;DHT22;13887;57.196;-2.100;2022-10-18T14:39:06;11.23;80.65
22069;DHT22;13887;57.196;-2.100;2022-10-18T14:41:50;11.22;80.25
22069;DHT22;13887;57.196;-2.100;2022-10-18T14:44:25;11.25;79.55
22069;DHT22;13887;57.196;-2.100;2022-10-18T14:47:01;11.27;79.82
22069;DHT22;13887;57.196;-2.100;2022-10-18T14:49:29;11.28;79.82
22069;DHT22;13887;57.196;-2.100;2022-10-18T14:51:58;11.31;79.62
22069;DHT22;13887;57.196;-2.100;2022-10-18T14:54:32;11.34;79.43
22069;DHT22;13887;57.196;-2.100;2022-10-18T14:57:03;11.33;79.71
22069;DHT22;13887;57.196;-2.100;2022-10-18T14:59:44;11.31;80.04
22069;DHT22;13887;57.196;-2.100;2022-10-18T15:02:21;11.29;80.23
22069;DHT22;13887;57.196;-2.100;2022-10-18T15:05:08;11.28;80.45
22069;DHT22;13887;57.196;-2.100;2022-10-18T15:07:36;11.27;80.61
22069;DHT22;13887;57.196;-2.100;2022-10-18T15:10:03;11.27;80.78
22069;DHT22;13887;57.196;-2.100;2022-10-18T15:12:31;11.27;80.92
22069;DHT22;13887;57.196;-2.100;2022-10-18T15:15:20;11.26;81.21
22069;DHT22;13887;57.196;-2.100;2022-10-18T15:17:48;11.25;81.26
22069;DHT22;13887;57.196;-2.100;2022-10-18T15:20:41;11.27;81.23
22069;DHT22;13887;57.196;-2.100;2022-10-18T15:23:25;11.26;81.17
22069;DHT22;13887;57.196;-2.100;2022-10-18T15:25:59;11.25;81.08
22069;DHT22;13887;57.196;-2.100;2022-10-18T15:28:33;11.25;81.01
22069;DHT22;13887;57.196;-2.100;2022-10-18T15:31:05;11.24;80.78
22069;DHT22;13887;57.196;-2.100;2022-10-18T15:33:32;11.23;80.79
22069;DHT22;13887;57.196;-2.100;2022-10-18T15:36:26;11.24;80.72
22069;DHT22;13887;57.196;-2.100;2022-10-18T15:39:27;11.23;80.78
22069;DHT22;13887;57.196;-2.100;2022-10-18T15:41:59;11.23;80.83
22069;DHT22;13887;57.196;-2.100;2022-10-18T15:44:48;11.23;80.91
22069;DHT22;13887;57.196;-2.100;2022-10-18T15:47:18;11.22;81.07
22069;DHT22;13887;57.196;-2.100;2022-10-18T15:49:53;11.18;81.25
22069;DHT22;13887;57.196;-2.100;2022-10-18T15:52:37;11.17;81.34
22069;DHT22;13887;57.196;-2.100;2022-10-18T15:58:19;11.17;81.54
22069;DHT22;13887;57.196;-2.100;2022-10-18T16:00:49;11.18;81.56
22069;DHT22;13887;57.196;-2.100;2022-10-18T16:03:17;11.17;81.62
22069;DHT22;13887;57.196;-2.100;2022-10-18T16:05:44;11.17;81.62
22069;DHT22;13887;57.196;-2.100;2022-10-18T16:08:28;11.18;81.63
22069;DHT22;13887;57.196;-2.100;2022-10-18T16:10:57;11.20;81.57
22069;DHT22;13887;57.196;-2.100;2022-10-18T16:13:25;11.20;81.65
22069;DHT22;13887;57.196;-2.100;2022-10-18T16:15:52;11.19;81.77
22069;DHT22;13887;57.196;-2.100;2022-10-18T16:18:22;11.18;81.87
22069;DHT22;13887;57.196;-2.100;2022-10-18T16:20:50;11.20;81.72
22069;DHT22;13887;57.196;-2.100;2022-10-18T16:23:22;11.18;81.97
22069;DHT22;13887;57.196;-2.100;2022-10-18T16:25:50;11.19;81.93
22069;DHT22;13887;57.196;-2.100;2022-10-18T16:28:20;11.18;82.10
22069;DHT22;13887;57.196;-2.100;2022-10-18T16:31:05;11.15;82.22
22069;DHT22;13887;57.196;-2.100;2022-10-18T16:33:32;11.12;82.44
22069;DHT22;13887;57.196;-2.100;2022-10-18T16:35:59;11.13;82.48
22069;DHT22;13887;57.196;-2.100;2022-10-18T16:38:29;11.13;82.47
22069;DHT22;13887;57.196;-2.100;2022-10-18T16:41:05;11.12;82.45
22069;DHT22;13887;57.196;-2.100;2022-10-18T16:43:33;11.10;82.53
22069;DHT22;13887;57.196;-2.100;2022-10-18T16:46:01;11.08;82.62
22069;DHT22;13887;57.196;-2.100;2022-10-18T16:48:28;11.07;82.65
22069;DHT22;13887;57.196;-2.100;2022-10-18T16:50:56;11.09;82.59
22069;DHT22;13887;57.196;-2.100;2022-10-18T16:53:23;11.05;82.69
22069;DHT22;13887;57.196;-2.100;2022-10-18T16:55:53;11.07;82.68
22069;DHT22;13887;57.196;-2.100;2022-10-18T16:58:21;11.04;82.69
22069;DHT22;13887;57.196;-2.100;2022-10-18T17:00:49;11.03;82.73
22069;DHT22;13887;57.196;-2.100;2022-10-18T17:03:16;11.03;82.78
22069;DHT22;13887;57.196;-2.100;2022-10-18T17:05:43;11.03;82.78
22069;DHT22;13887;57.196;-2.100;2022-10-18T17:08:22;11.02;82.83
22069;DHT22;13887;57.196;-2.100;2022-10-18T17:10:50;11.02;82.78
22069;DHT22;13887;57.196;-2.100;2022-10-18T17:13:22;10.98;82.81
22069;DHT22;13887;57.196;-2.100;2022-10-18T17:15:49;10.97;82.87
22069;DHT22;13887;57.196;-2.100;2022-10-18T17:18:19;10.97;82.87
22069;DHT22;13887;57.196;-2.100;2022-10-18T17:20:48;10.97;82.89
22069;DHT22;13887;57.196;-2.100;2022-10-18T17:23:15;10.96;82.90
22069;DHT22;13887;57.196;-2.100;2022-10-18T17:25:42;10.97;82.84
22069;DHT22;13887;57.196;-2.100;2022-10-18T17:28:30;10.96;82.85
22069;DHT22;13887;57.196;-2.100;2022-10-18T17:30:57;10.97;82.79
22069;DHT22;13887;57.196;-2.100;2022-10-18T17:33:23;10.94;82.92
22069;DHT22;13887;57.196;-2.100;2022-10-18T17:35:50;10.94;82.92
22069;DHT22;13887;57.196;-2.100;2022-10-18T17:38:17;10.94;82.83
22069;DHT22;13887;57.196;-2.100;2022-10-18T17:40:44;10.92;82.94
22069;DHT22;13887;57.196;-2.100;2022-10-18T17:43:11;10.93;82.78
22069;DHT22;13887;57.196;-2.100;2022-10-18T17:45:55;10.90;82.78
22069;DHT22;13887;57.196;-2.100;2022-10-18T17:48:23;10.88;82.88
22069;DHT22;13887;57.196;-2.100;2022-10-18T17:50:50;10.85;82.80
22069;DHT22;13887;57.196;-2.100;2022-10-18T17:53:17;10.86;82.81
22069;DHT22;13887;57.196;-2.100;2022-10-18T17:55:48;10.86;82.78
22069;DHT22;13887;57.196;-2.100;2022-10-18T17:58:15;10.92;82.49
22069;DHT22;13887;57.196;-2.100;2022-10-18T18:00:42;10.87;82.62
22069;DHT22;13887;57.196;-2.100;2022-10-18T18:03:09;10.88;82.68
22069;DHT22;13887;57.196;-2.100;2022-10-18T18:05:36;10.83;82.63
22069;DHT22;13887;57.196;-2.100;2022-10-18T18:08:03;10.82;82.69
22069;DHT22;13887;57.196;-2.100;2022-10-18T18:10:33;10.83;82.73
22069;DHT22;13887;57.196;-2.100;2022-10-18T18:13:01;10.84;82.65
22069;DHT22;13887;57.196;-2.100;2022-10-18T18:15:28;10.82;82.64
22069;DHT22;13887;57.196;-2.100;2022-10-18T18:17:56;10.83;82.62
22069;DHT22;13887;57.196;-2.100;2022-10-18T18:20:24;10.85;82.39
22069;DHT22;13887;57.196;-2.100;2022-10-18T18:22:51;10.82;82.22
22069;DHT22;13887;57.196;-2.100;2022-10-18T18:25:18;10.80;82.26
22069;DHT22;13887;57.196;-2.100;2022-10-18T18:27:45;10.80;82.22
22069;DHT22;13887;57.196;-2.100;2022-10-18T18:30:12;10.79;82.17
22069;DHT22;13887;57.196;-2.100;2022-10-18T18:32:41;10.80;82.17